Time;durP1;ratioP1;P1;durP2;ratioP2;P2;SDS_P1;SDS_P2;PMS_P1;PMS_P2;Temp;Humidity;BMP_temperature;BMP_pressure;BME280_temperature;BME280_humidity;BME280_pressure;Samples;Min_cycle;Max_cycle;Signal;HPM_P1;HPM_P2
2022/08/24 00:00:07;;;;;;;3.28;2.45;;;21.30;10.10;;;;;;5036368;28;20053;-86
2022/08/24 00:02:33;;;;;;;4.32;2.47;;;21.30;13.00;;;;;;5054956;28;20025;-86
2022/08/24 00:04:58;;;;;;;3.85;2.25;;;21.30;10.80;;;;;;5055224;28;20031;-86
2022/08/24 00:07:24;;;;;;;3.83;2.38;;;21.30;7.90;;;;;;5055304;28;20074;-86
2022/08/24 00:09:50;;;;;;;4.28;2.55;;;21.30;7.80;;;;;;5055279;28;20029;-86
2022/08/24 00:12:16;;;;;;;3.72;2.60;;;21.20;8.60;;;;;;5054967;28;20033;-86
2022/08/24 00:14:42;;;;;;;3.47;2.33;;;21.20;9.60;;;;;;5054917;28;20033;-86
2022/08/24 00:17:08;;;;;;;3.45;2.60;;;21.10;15.50;;;;;;5054596;28;20100;-86
2022/08/24 00:19:34;;;;;;;2.83;2.50;;;21.00;14.00;;;;;;5054979;28;20537;-86
2022/08/24 00:22:00;;;;;;;3.20;2.65;;;21.00;16.50;;;;;;5036956;28;20406;-86
2022/08/24 00:24:26;;;;;;;4.75;2.38;;;21.10;16.90;;;;;;5054818;28;20029;-86
2022/08/24 00:26:53;;;;;;;5.03;2.65;;;21.00;20.00;;;;;;5054565;28;20037;-86
2022/08/24 00:29:20;;;;;;;5.10;2.60;;;21.00;21.20;;;;;;5054501;28;20497;-86
2022/08/24 00:31:46;;;;;;;3.67;2.45;;;20.90;18.00;;;;;;5054470;28;20063;-86
2022/08/24 00:34:12;;;;;;;3.58;2.70;;;20.80;11.50;;;;;;5054684;28;20402;-86
2022/08/24 00:36:39;;;;;;;4.43;2.10;;;20.70;15.10;;;;;;5054748;28;20123;-85
2022/08/24 00:39:06;;;;;;;5.07;2.78;;;20.60;19.90;;;;;;5054534;28;20059;-86
2022/08/24 00:41:33;;;;;;;4.07;2.50;;;20.60;18.40;;;;;;5054558;28;20116;-86
2022/08/24 00:44:03;;;;;;;5.43;2.45;;;20.70;17.80;;;;;;5054623;28;20021;-86
2022/08/24 00:46:50;;;;;;;3.10;2.33;;;20.60;18.40;;;;;;5054276;28;20029;-86
2022/08/24 00:49:44;;;;;;;3.88;2.53;;;20.60;20.60;;;;;;5054566;28;20033;-86
2022/08/24 00:52:16;;;;;;;3.25;2.45;;;20.50;20.30;;;;;;5054229;28;20056;-86
2022/08/24 00:54:48;;;;;;;5.55;2.58;;;20.50;18.80;;;;;;5054354;28;20059;-86
2022/08/24 00:57:21;;;;;;;3.35;2.28;;;20.50;21.30;;;;;;5054309;28;20466;-86
2022/08/24 00:59:54;;;;;;;5.78;2.40;;;20.60;15.80;;;;;;5053912;28;20028;-86
2022/08/24 01:02:28;;;;;;;3.55;2.60;;;20.50;15.80;;;;;;5054124;28;20025;-86
2022/08/24 01:04:57;;;;;;;3.05;2.40;;;20.50;27.70;;;;;;5036209;28;20021;-86
2022/08/24 01:07:24;;;;;;;2.95;2.50;;;20.60;18.60;;;;;;5054166;28;20227;-86
2022/08/24 01:09:58;;;;;;;5.28;2.50;;;20.50;19.20;;;;;;5054082;28;20037;-86
2022/08/24 01:12:25;;;;;;;5.97;2.80;;;20.40;15.50;;;;;;5053512;28;20045;-86
2022/08/24 01:14:52;;;;;;;3.90;2.70;;;20.30;16.40;;;;;;5053413;28;20111;-86
2022/08/24 01:20:05;;;;;;;4.53;2.63;;;20.20;17.40;;;;;;5053879;28;20055;-86
2022/08/24 01:22:40;;;;;;;3.50;2.72;;;20.00;17.70;;;;;;5053672;28;20021;-86
2022/08/24 01:25:05;;;;;;;3.40;2.60;;;20.10;16.50;;;;;;5053702;28;20021;-86
2022/08/24 01:27:32;;;;;;;3.70;2.35;;;20.20;15.60;;;;;;5053587;28;20041;-86
2022/08/24 01:30:01;;;;;;;4.13;2.70;;;20.10;18.60;;;;;;5053177;28;20025;-86
2022/08/24 01:32:27;;;;;;;5.20;2.55;;;20.00;20.40;;;;;;5053409;28;20044;-86
2022/08/24 01:34:54;;;;;;;3.13;2.55;;;19.90;16.70;;;;;;5053530;28;20017;-85
2022/08/24 01:37:20;;;;;;;3.47;2.58;;;20.00;19.30;;;;;;5053591;28;20040;-85
2022/08/24 01:39:48;;;;;;;4.63;3.03;;;20.00;17.90;;;;;;5053415;28;20035;-86
2022/08/24 01:42:14;;;;;;;3.35;2.72;;;19.90;20.60;;;;;;5053119;28;20508;-85
2022/08/24 01:44:42;;;;;;;5.28;2.97;;;19.90;19.40;;;;;;5053444;28;20013;-86
2022/08/24 01:47:11;;;;;;;4.38;2.78;;;19.80;22.30;;;;;;5053413;28;20083;-86
2022/08/24 01:49:43;;;;;;;3.58;2.67;;;19.80;19.60;;;;;;5053204;28;20025;-86
2022/08/24 01:52:13;;;;;;;4.57;2.67;;;19.80;19.80;;;;;;5053112;28;20036;-87
2022/08/24 01:54:39;;;;;;;4.40;2.53;;;19.70;19.60;;;;;;5053139;28;20481;-87
2022/08/24 01:57:05;;;;;;;3.85;2.72;;;19.70;19.80;;;;;;5052880;28;20029;-87
2022/08/24 01:59:31;;;;;;;3.47;2.65;;;19.80;19.90;;;;;;5053116;28;20475;-87
2022/08/24 02:02:12;;;;;;;3.03;2.50;;;19.80;16.90;;;;;;5053197;28;20029;-87
2022/08/24 02:04:38;;;;;;;4.07;2.72;;;19.80;20.80;;;;;;5052981;28;20017;-87
2022/08/24 02:07:04;;;;;;;3.13;2.45;;;19.70;19.70;;;;;;5053023;28;20047;-87
2022/08/24 02:09:30;;;;;;;5.38;2.75;;;19.60;21.70;;;;;;5052981;28;20021;-87
2022/08/24 02:11:56;;;;;;;3.25;2.63;;;19.60;22.40;;;;;;5035000;28;20100;-87
2022/08/24 02:14:21;;;;;;;4.53;2.40;;;19.60;20.50;;;;;;5052615;28;20159;-87
2022/08/24 02:16:47;;;;;;;4.20;2.40;;;19.60;15.00;;;;;;5052741;28;20402;-87
2022/08/24 02:19:13;;;;;;;3.35;2.58;;;19.60;23.40;;;;;;5052869;28;20094;-87
2022/08/24 02:21:39;;;;;;;3.60;2.78;;;19.50;19.20;;;;;;5052818;28;20029;-86
2022/08/24 02:24:05;;;;;;;4.35;2.97;;;19.50;14.80;;;;;;5052107;28;20021;-86
2022/08/24 02:26:30;;;;;;;5.43;2.85;;;19.40;19.90;;;;;;5052006;28;20063;-86
2022/08/24 02:28:56;;;;;;;9.25;2.90;;;19.40;16.80;;;;;;5052365;28;20076;-87
2022/08/24 02:31:22;;;;;;;3.13;2.38;;;19.50;18.90;;;;;;5052680;28;20087;-87
2022/08/24 02:33:47;;;;;;;6.03;2.63;;;19.50;14.50;;;;;;5052625;28;20029;-87
2022/08/24 02:36:14;;;;;;;3.92;2.60;;;19.50;27.20;;;;;;5052570;28;20033;-87
2022/08/24 02:38:40;;;;;;;4.03;2.30;;;19.60;17.50;;;;;;5052622;28;20079;-87
2022/08/24 02:41:05;;;;;;;4.18;2.35;;;19.70;18.60;;;;;;5052084;28;20494;-87
2022/08/24 02:43:32;;;;;;;3.85;2.70;;;19.50;18.80;;;;;;5052504;28;20029;-86
2022/08/24 02:45:58;;;;;;;4.05;2.70;;;19.60;21.60;;;;;;5052484;28;20028;-87
2022/08/24 02:48:24;;;;;;;6.32;2.72;;;19.20;19.30;;;;;;5052473;28;20062;-87
2022/08/24 02:50:51;;;;;;;5.30;2.60;;;19.20;22.20;;;;;;5052504;28;20075;-87
2022/08/24 02:53:19;;;;;;;4.22;2.75;;;19.20;21.60;;;;;;5052318;28;20040;-86
2022/08/24 02:55:45;;;;;;;3.30;2.20;;;19.20;21.70;;;;;;5052076;28;20493;-87
2022/08/24 02:58:14;;;;;;;5.90;2.63;;;19.10;22.20;;;;;;5052500;28;20509;-87
2022/08/24 03:00:41;;;;;;;4.65;2.60;;;19.00;23.00;;;;;;5052307;28;20538;-87
2022/08/24 03:03:08;;;;;;;2.88;2.58;;;18.90;22.00;;;;;;5052289;28;20099;-87
2022/08/24 03:05:35;;;;;;;2.75;2.42;;;19.00;21.20;;;;;;5052298;28;20028;-87
2022/08/24 03:08:01;;;;;;;5.85;2.80;;;19.00;19.60;;;;;;5052298;28;20029;-86
2022/08/24 03:10:26;;;;;;;4.80;2.78;;;18.90;19.40;;;;;;5034038;28;20404;-87
2022/08/24 03:12:52;;;;;;;3.75;2.83;;;18.90;17.40;;;;;;5052105;28;20037;-87
2022/08/24 03:15:21;;;;;;;3.72;2.75;;;18.90;18.00;;;;;;5052166;28;20021;-87
2022/08/24 03:17:47;;;;;;;5.70;2.80;;;18.90;21.80;;;;;;5052189;28;20036;-87
2022/08/24 03:20:18;;;;;;;5.32;2.85;;;18.80;22.60;;;;;;5052092;28;20021;-87
2022/08/24 03:22:45;;;;;;;3.67;2.60;;;18.80;22.60;;;;;;5052191;28;20032;-87
2022/08/24 03:25:11;;;;;;;3.10;2.47;;;18.80;21.70;;;;;;5051804;28;20543;-86
2022/08/24 03:27:37;;;;;;;3.35;2.40;;;18.80;20.40;;;;;;5051950;28;20119;-87
2022/08/24 03:30:04;;;;;;;3.75;2.50;;;18.80;20.40;;;;;;5051870;28;20029;-87
2022/08/24 03:32:31;;;;;;;4.78;2.35;;;18.70;23.90;;;;;;5051920;28;20044;-87
2022/08/24 03:34:56;;;;;;;2.60;2.40;;;18.80;21.30;;;;;;5054339;28;20067;-87
2022/08/24 03:37:22;;;;;;;3.20;2.58;;;18.70;21.70;;;;;;5055865;28;20029;-87
2022/08/24 03:39:49;;;;;;;3.13;2.10;;;18.60;21.30;;;;;;5055522;28;20117;-87
2022/08/24 03:42:15;;;;;;;2.40;2.20;;;18.60;24.30;;;;;;5055668;28;20036;-87
2022/08/24 03:44:41;;;;;;;3.28;2.92;;;18.60;27.20;;;;;;5055737;28;20107;-87
2022/08/24 03:47:09;;;;;;;4.38;2.58;;;18.60;23.10;;;;;;5055694;28;20068;-86
2022/08/24 03:49:36;;;;;;;5.30;2.40;;;18.50;24.00;;;;;;5055537;28;20359;-87
2022/08/24 03:52:02;;;;;;;3.05;2.50;;;18.50;24.30;;;;;;5055548;28;20044;-87
2022/08/24 03:54:28;;;;;;;6.35;2.42;;;18.40;24.70;;;;;;5054958;28;20021;-87
2022/08/24 03:56:53;;;;;;;4.57;2.22;;;18.40;22.30;;;;;;5055277;28;20375;-87
2022/08/24 03:59:19;;;;;;;4.40;2.42;;;18.40;18.00;;;;;;5055504;28;20108;-87
2022/08/24 04:01:45;;;;;;;8.05;2.95;;;18.40;21.40;;;;;;5055325;28;20018;-87
2022/08/24 04:04:10;;;;;;;4.10;2.60;;;18.30;24.60;;;;;;5055292;28;20482;-87
2022/08/24 04:06:37;;;;;;;2.40;2.20;;;18.20;21.50;;;;;;5055200;28;20020;-87
2022/08/24 04:09:03;;;;;;;3.72;2.65;;;18.10;24.10;;;;;;5054877;28;20033;-87
2022/08/24 04:11:29;;;;;;;3.25;2.50;;;18.00;25.20;;;;;;5055174;28;20021;-87
2022/08/24 04:13:56;;;;;;;5.78;2.50;;;18.10;22.30;;;;;;5054993;28;20044;-87
2022/08/24 04:16:23;;;;;;;4.15;2.28;;;18.00;26.60;;;;;;5055104;28;20108;-87
2022/08/24 04:18:49;;;;;;;3.28;2.55;;;18.10;26.40;;;;;;5054941;28;20025;-87
2022/08/24 04:21:22;;;;;;;3.60;2.47;;;18.10;33.50;;;;;;5055066;28;20040;-87
2022/08/24 04:23:49;;;;;;;3.30;2.70;;;18.10;28.50;;;;;;5054723;28;20055;-87
2022/08/24 04:26:16;;;;;;;4.10;2.50;;;17.90;30.50;;;;;;5054950;28;20052;-87
2022/08/24 04:28:41;;;;;;;2.92;2.38;;;17.80;28.30;;;;;;5054457;28;20513;-87
2022/08/24 04:31:07;;;;;;;2.75;2.50;;;17.80;25.70;;;;;;5054686;28;20029;-87
2022/08/24 04:33:33;;;;;;;6.00;2.72;;;17.90;27.00;;;;;;5054710;28;20037;-87
2022/08/24 04:35:58;;;;;;;4.97;2.92;;;17.90;24.90;;;;;;5054803;28;20025;-87
2022/08/24 04:38:25;;;;;;;3.58;2.78;;;18.00;23.80;;;;;;5054345;28;20017;-87
2022/08/24 04:40:51;;;;;;;5.18;2.40;;;18.00;25.90;;;;;;5054621;28;20111;-87
2022/08/24 04:43:17;;;;;;;4.03;2.60;;;17.90;26.20;;;;;;5054522;28;20091;-87
2022/08/24 04:45:45;;;;;;;3.95;2.75;;;17.80;24.40;;;;;;5053949;28;20033;-87
2022/08/24 04:48:14;;;;;;;4.72;2.78;;;17.80;27.70;;;;;;5054592;28;20075;-87
2022/08/24 04:50:42;;;;;;;4.32;2.50;;;17.90;37.40;;;;;;5054136;28;20076;-87
2022/08/24 04:53:09;;;;;;;5.80;2.60;;;17.90;30.50;;;;;;5054360;28;20033;-86
2022/08/24 04:55:48;;;;;;;4.88;2.58;;;18.00;29.30;;;;;;5054253;28;20036;-87
2022/08/24 04:58:16;;;;;;;3.60;2.75;;;17.90;29.00;;;;;;5054283;28;20039;-87
2022/08/24 05:00:43;;;;;;;4.18;2.58;;;17.90;29.10;;;;;;5054319;28;20025;-86
2022/08/24 05:03:10;;;;;;;4.63;2.42;;;17.80;29.00;;;;;;5054076;28;20036;-86
2022/08/24 05:05:40;;;;;;;3.78;2.70;;;17.90;29.40;;;;;;5053791;28;20045;-87
2022/08/24 05:08:06;;;;;;;3.95;2.58;;;17.90;38.60;;;;;;5054121;28;20025;-86
2022/08/24 05:10:32;;;;;;;4.32;2.60;;;17.90;33.80;;;;;;5053892;28;20021;-87
2022/08/24 05:12:58;;;;;;;5.65;2.70;;;17.80;26.30;;;;;;5053886;28;20087;-86
2022/08/24 05:15:23;;;;;;;6.15;2.72;;;17.80;34.40;;;;;;5053712;28;20481;-87
2022/08/24 05:17:49;;;;;;;3.30;2.60;;;17.80;34.90;;;;;;5053924;28;20048;-87
2022/08/24 05:20:15;;;;;;;2.70;2.50;;;17.90;32.70;;;;;;5053430;28;20139;-87
2022/08/24 05:22:40;;;;;;;4.28;2.90;;;18.00;32.90;;;;;;5053720;28;20036;-87
2022/08/24 05:25:06;;;;;;;3.60;2.75;;;18.00;24.30;;;;;;5035934;28;20024;-86
2022/08/24 05:27:33;;;;;;;4.22;2.70;;;18.00;23.40;;;;;;5053575;28;20517;-86
2022/08/24 05:29:59;;;;;;;4.13;2.72;;;18.00;27.40;;;;;;5053621;28;20029;-87
2022/08/24 05:32:24;;;;;;;4.57;2.70;;;17.90;23.80;;;;;;5053573;28;20048;-86
2022/08/24 05:34:50;;;;;;;6.95;3.00;;;17.90;24.40;;;;;;5053300;28;20386;-87
2022/08/24 05:37:16;;;;;;;6.43;2.90;;;17.90;21.20;;;;;;5053528;28;20384;-87
2022/08/24 05:39:41;;;;;;;5.63;2.90;;;17.90;23.80;;;;;;5053562;28;20519;-87
2022/08/24 05:42:07;;;;;;;3.35;2.50;;;18.00;20.70;;;;;;5053311;28;20075;-86
2022/08/24 05:44:33;;;;;;;5.03;2.58;;;18.10;19.40;;;;;;5053395;28;20496;-87
2022/08/24 05:46:59;;;;;;;3.58;2.75;;;18.20;22.20;;;;;;5035416;28;20128;-87
2022/08/24 05:49:26;;;;;;;6.18;2.70;;;18.20;21.80;;;;;;5052981;28;20413;-87
2022/08/24 05:51:52;;;;;;;4.35;3.00;;;18.30;23.40;;;;;;5053285;28;20060;-87
2022/08/24 05:54:18;;;;;;;4.18;2.80;;;18.30;24.10;;;;;;5053129;28;20033;-87
2022/08/24 05:56:44;;;;;;;4.20;2.65;;;18.30;27.50;;;;;;5053136;28;20414;-87
2022/08/24 05:59:11;;;;;;;4.90;2.90;;;18.40;23.80;;;;;;5052166;28;20063;-87
2022/08/24 06:01:37;;;;;;;6.03;3.03;;;18.40;24.60;;;;;;5053079;28;20101;-87
2022/08/24 06:04:04;;;;;;;5.53;3.05;;;18.50;23.90;;;;;;5052733;28;20032;-87
2022/08/24 06:06:30;;;;;;;4.15;3.10;;;18.40;22.10;;;;;;5052967;28;20394;-87
2022/08/24 06:08:58;;;;;;;8.18;3.17;;;18.40;20.50;;;;;;5052970;28;20040;-87
2022/08/24 06:11:36;;;;;;;4.10;2.80;;;18.50;26.60;;;;;;5052789;28;20024;-87
2022/08/24 06:14:05;;;;;;;4.90;3.08;;;18.50;26.80;;;;;;5052601;28;20386;-87
2022/08/24 06:16:34;;;;;;;7.97;3.00;;;18.70;25.30;;;;;;5053033;28;20021;-86
2022/08/24 06:19:00;;;;;;;5.28;2.97;;;18.80;26.80;;;;;;5052504;28;20025;-87
2022/08/24 06:21:26;;;;;;;7.68;2.90;;;18.90;23.10;;;;;;5034786;28;20040;-87
2022/08/24 06:23:52;;;;;;;6.70;3.00;;;19.00;24.60;;;;;;5052595;28;20025;-86
2022/08/24 06:29:04;;;;;;;5.22;2.92;;;19.20;25.50;;;;;;5052361;28;20114;-87
2022/08/24 06:31:34;;;;;;;3.95;3.08;;;19.30;23.70;;;;;;5052498;28;20469;-87
2022/08/24 06:33:59;;;;;;;4.43;3.33;;;19.40;24.30;;;;;;5052266;28;20040;-87
2022/08/24 06:36:25;;;;;;;3.35;2.95;;;19.50;21.30;;;;;;5052561;28;20396;-87
2022/08/24 06:38:51;;;;;;;3.10;2.80;;;19.50;20.70;;;;;;5052672;28;20028;-87
2022/08/24 06:41:17;;;;;;;8.10;2.75;;;19.60;21.80;;;;;;5052562;28;20025;-87
2022/08/24 06:43:43;;;;;;;5.90;2.83;;;19.70;22.30;;;;;;5052318;28;20039;-87
2022/08/24 06:46:09;;;;;;;3.03;2.72;;;19.90;22.10;;;;;;5052326;28;20024;-87
2022/08/24 06:48:34;;;;;;;4.78;2.92;;;20.00;15.70;;;;;;5052259;28;20075;-87
2022/08/24 06:51:00;;;;;;;6.35;3.17;;;20.00;21.70;;;;;;5052380;28;20025;-87
2022/08/24 06:53:26;;;;;;;5.38;2.92;;;20.20;24.80;;;;;;5052266;28;20037;-87
2022/08/24 06:55:54;;;;;;;6.07;3.08;;;20.20;22.00;;;;;;5052401;28;20075;-87
2022/08/24 06:58:20;;;;;;;5.63;2.70;;;20.20;25.60;;;;;;5052230;28;20025;-87
2022/08/24 07:00:46;;;;;;;3.70;2.80;;;20.40;23.20;;;;;;5052311;28;20028;-87
2022/08/24 07:03:12;;;;;;;2.85;2.60;;;20.50;25.10;;;;;;5052028;28;20021;-87
2022/08/24 07:05:38;;;;;;;3.83;2.90;;;20.70;28.20;;;;;;5052307;28;20104;-87
2022/08/24 07:08:05;;;;;;;3.25;2.60;;;20.70;20.60;;;;;;5052333;28;20056;-87
2022/08/24 07:10:32;;;;;;;4.47;2.95;;;20.80;25.90;;;;;;5055610;28;20091;-87
2022/08/24 07:12:59;;;;;;;4.13;2.80;;;20.90;25.20;;;;;;5038287;28;20037;-87
2022/08/24 07:15:25;;;;;;;7.05;2.50;;;21.00;24.10;;;;;;5056076;28;20033;-87
2022/08/24 07:17:52;;;;;;;3.72;2.72;;;21.10;26.00;;;;;;5055875;28;20029;-87
2022/08/24 07:20:18;;;;;;;4.55;2.67;;;21.30;26.10;;;;;;5056074;28;20025;-86
2022/08/24 07:22:44;;;;;;;5.88;2.78;;;21.20;25.50;;;;;;5056034;28;20032;-87
2022/08/24 07:25:11;;;;;;;3.42;2.72;;;21.30;27.30;;;;;;5055916;28;20028;-87
2022/08/24 07:27:38;;;;;;;6.88;2.90;;;21.50;25.00;;;;;;5055917;28;20045;-86
2022/08/24 07:30:05;;;;;;;3.75;2.78;;;21.80;25.70;;;;;;5055835;28;20043;-87
2022/08/24 07:32:32;;;;;;;4.85;2.65;;;22.00;24.60;;;;;;5055610;28;20047;-87
2022/08/24 07:34:58;;;;;;;4.80;2.58;;;22.10;23.80;;;;;;5055832;28;20066;-86
2022/08/24 07:37:24;;;;;;;3.70;2.80;;;22.10;25.00;;;;;;5055810;28;20035;-87
2022/08/24 07:39:49;;;;;;;2.75;2.40;;;22.20;24.10;;;;;;5055827;28;20017;-87
2022/08/24 07:42:15;;;;;;;4.97;2.47;;;22.40;27.50;;;;;;5055598;28;20036;-87
2022/08/24 07:44:42;;;;;;;4.88;2.60;;;22.40;25.90;;;;;;5055437;28;20105;-86
2022/08/24 07:47:08;;;;;;;3.08;2.78;;;22.60;24.30;;;;;;5055610;28;20025;-87
2022/08/24 07:49:33;;;;;;;3.10;2.80;;;22.70;23.10;;;;;;5055540;28;20090;-87
2022/08/24 07:52:00;;;;;;;4.65;2.53;;;22.70;23.10;;;;;;5055462;28;20067;-87
2022/08/24 07:54:29;;;;;;;5.13;2.75;;;22.70;24.70;;;;;;5055417;28;20090;-87
2022/08/24 07:56:55;;;;;;;6.80;2.65;;;22.90;27.30;;;;;;5055446;28;20592;-87
2022/08/24 07:59:21;;;;;;;4.20;2.33;;;23.10;26.20;;;;;;5055180;28;20108;-87
2022/08/24 08:01:48;;;;;;;8.25;2.65;;;23.20;25.80;;;;;;5055231;28;20048;-86
2022/08/24 08:04:14;;;;;;;6.82;2.42;;;23.20;21.50;;;;;;5055413;28;20032;-87
2022/08/24 08:06:42;;;;;;;6.90;2.70;;;23.30;21.50;;;;;;5055078;28;20017;-87
2022/08/24 08:09:08;;;;;;;4.35;2.60;;;23.40;25.00;;;;;;5055265;28;20036;-87
2022/08/24 08:11:34;;;;;;;6.03;2.88;;;23.50;22.60;;;;;;5055150;28;20048;-87
2022/08/24 08:13:59;;;;;;;7.95;2.80;;;23.50;23.40;;;;;;5054569;28;20528;-87
2022/08/24 08:16:25;;;;;;;4.25;2.72;;;23.60;25.60;;;;;;5055353;28;20108;-87
2022/08/24 08:18:51;;;;;;;4.28;2.67;;;23.70;22.90;;;;;;5054978;28;20021;-87
2022/08/24 08:24:16;;;;;;;5.80;2.88;;;23.80;27.00;;;;;;5055188;28;20163;-87
2022/08/24 08:26:43;;;;;;;6.03;2.85;;;24.00;26.20;;;;;;5054989;28;20035;-87
2022/08/24 08:29:09;;;;;;;5.30;3.17;;;24.20;28.80;;;;;;5054324;28;20048;-87
2022/08/24 08:31:36;;;;;;;3.97;2.60;;;24.30;26.70;;;;;;5054569;28;20044;-87
2022/08/24 08:34:03;;;;;;;5.05;2.85;;;24.40;30.00;;;;;;5054703;28;20032;-87
2022/08/24 08:36:30;;;;;;;7.85;2.95;;;24.50;37.60;;;;;;5054631;28;20029;-86
2022/08/24 08:38:56;;;;;;;4.53;3.00;;;24.60;25.00;;;;;;5054655;28;20404;-87
2022/08/24 08:42:17;;;;;;;5.70;3.20;;;24.70;24.20;;;;;;5054680;28;20032;-87
2022/08/24 08:45:19;;;;;;;6.60;2.95;;;24.60;25.50;;;;;;4954033;29;20488;-87
2022/08/24 08:48:12;;;;;;;5.15;3.00;;;24.90;25.10;;;;;;4954263;29;20039;-86
2022/08/24 08:51:05;;;;;;;3.88;2.70;;;25.00;25.20;;;;;;4954445;29;20057;-87
2022/08/24 08:53:30;;;;;;;16.35;3.97;;;25.00;26.50;;;;;;4954024;29;20035;-87
2022/08/24 08:56:08;;;;;;;11.60;3.25;;;25.00;22.60;;;;;;4954038;29;20079;-87
2022/08/24 08:59:04;;;;;;;4.35;2.75;;;25.20;25.00;;;;;;4953969;29;20493;-87
2022/08/24 09:01:51;;;;;;;4.60;2.92;;;25.30;26.80;;;;;;4954040;28;20051;-86
2022/08/24 09:04:33;;;;;;;6.03;3.30;;;25.50;24.60;;;;;;4954041;29;20032;-87
2022/08/24 09:07:24;;;;;;;5.47;3.20;;;25.50;23.40;;;;;;4953997;29;20074;-88
2022/08/24 09:10:17;;;;;;;3.67;2.80;;;25.50;23.20;;;;;;4953988;29;20493;-87
2022/08/24 09:12:58;;;;;;;4.30;2.90;;;25.50;24.60;;;;;;4953521;29;20039;-87
2022/08/24 09:15:51;;;;;;;21.75;4.07;;;25.70;27.80;;;;;;4998476;28;20508;-87
2022/08/24 09:18:47;;;;;;;5.55;2.80;;;25.80;26.60;;;;;;5053941;28;20025;-87
2022/08/24 09:21:56;;;;;;;6.15;2.97;;;26.10;25.50;;;;;;5048056;28;20114;-87
2022/08/24 09:24:46;;;;;;;5.53;3.03;;;25.90;27.50;;;;;;4968499;28;20035;-87
2022/08/24 09:27:31;;;;;;;3.70;3.03;;;26.10;33.20;;;;;;4972364;28;20077;-87
2022/08/24 09:30:17;;;;;;;5.95;2.83;;;26.30;27.90;;;;;;4972847;28;20065;-87
2022/08/24 09:32:59;;;;;;;6.28;3.15;;;26.50;23.90;;;;;;4972450;28;20154;-87
2022/08/24 09:35:46;;;;;;;4.93;3.42;;;26.60;28.00;;;;;;4972913;28;20035;-87
2022/08/24 09:38:42;;;;;;;5.07;3.17;;;26.60;25.50;;;;;;4972798;28;20022;-87
2022/08/24 09:41:39;;;;;;;4.80;3.47;;;26.80;27.10;;;;;;4972254;28;20073;-87
2022/08/24 09:44:22;;;;;;;3.88;3.10;;;27.00;25.10;;;;;;4972558;28;20035;-87
2022/08/24 09:47:32;;;;;;;5.38;3.20;;;26.90;24.70;;;;;;4972469;28;20151;-87
2022/08/24 09:50:06;;;;;;;5.57;3.13;;;27.20;25.10;;;;;;4915132;29;20048;-87
2022/08/24 09:52:34;;;;;;;5.40;3.30;;;27.40;27.30;;;;;;4914885;28;20044;-87
2022/08/24 09:55:15;;;;;;;3.63;3.17;;;27.10;27.30;;;;;;4914946;29;20510;-87
2022/08/24 09:58:08;;;;;;;5.47;3.00;;;27.40;26.40;;;;;;4915067;29;20044;-87
2022/08/24 10:00:45;;;;;;;5.15;3.20;;;27.50;27.30;;;;;;4954498;28;20039;-87
2022/08/24 10:03:29;;;;;;;3.28;2.80;;;27.60;32.40;;;;;;4972465;28;20488;-88
2022/08/24 10:05:55;;;;;;;4.30;3.13;;;27.80;26.30;;;;;;4972131;28;20042;-87
2022/08/24 10:08:41;;;;;;;4.53;3.20;;;27.90;27.20;;;;;;4972070;28;20034;-88
2022/08/24 10:11:35;;;;;;;5.68;3.05;;;28.30;27.60;;;;;;4971754;28;20030;-87
2022/08/24 10:14:23;;;;;;;6.05;3.38;;;28.30;26.30;;;;;;4972427;28;20050;-87
2022/08/24 10:17:08;;;;;;;5.07;3.00;;;28.90;26.20;;;;;;4970386;28;20077;-86
2022/08/24 10:19:51;;;;;;;5.43;3.10;;;30.60;29.20;;;;;;4971805;28;20066;-87
2022/08/24 10:22:43;;;;;;;7.55;2.90;;;35.10;31.10;;;;;;4972019;28;20027;-88
2022/08/24 10:25:17;;;;;;;6.30;3.03;;;38.40;50.20;;;;;;4963858;28;20039;-88
2022/08/24 10:28:11;;;;;;;3.95;3.00;;;40.40;32.20;;;;;;5052475;28;20052;-88
2022/08/24 10:31:06;;;;;;;4.57;2.90;;;41.30;33.20;;;;;;5052657;28;20025;-88
2022/08/24 10:33:53;;;;;;;4.82;3.22;;;42.50;43.20;;;;;;5052553;28;20505;-88
2022/08/24 10:36:19;;;;;;;5.00;2.88;;;44.50;38.40;;;;;;5052632;28;20607;-88
2022/08/24 10:41:42;;;;;;;3.17;2.88;;;44.70;26.90;;;;;;5052859;28;20024;-88
2022/08/24 10:44:36;;;;;;;5.38;3.00;;;45.50;30.70;;;;;;5051838;28;20589;-88
2022/08/24 10:47:35;;;;;;;3.35;2.63;;;45.60;38.20;;;;;;5052525;28;20024;-88
2022/08/24 10:50:06;;;;;;;4.80;2.70;;;46.80;23.10;;;;;;4971679;28;20042;-88
2022/08/24 10:52:48;;;;;;;6.10;3.00;;;46.70;22.00;;;;;;4971450;28;20050;-89
2022/08/24 10:55:19;;;;;;;2.88;2.67;;;46.80;17.00;;;;;;4971301;28;20065;-88
2022/08/24 10:58:04;;;;;;;2.70;2.50;;;46.10;19.50;;;;;;4971642;28;20081;-89
2022/08/24 11:00:31;;;;;;;2.83;2.60;;;44.90;16.80;;;;;;4971568;28;20566;-88
2022/08/24 11:03:13;;;;;;;3.03;2.80;;;45.90;15.90;;;;;;4971644;28;20093;-88
2022/08/24 11:05:45;;;;;;;3.75;2.70;;;47.60;18.30;;;;;;4971467;28;20039;-89
2022/08/24 11:08:21;;;;;;;3.00;2.70;;;48.10;12.30;;;;;;4971210;28;20031;-89
2022/08/24 11:11:05;;;;;;;3.25;2.80;;;48.20;17.80;;;;;;4971434;28;20102;-89
2022/08/24 11:13:32;;;;;;;4.25;2.63;;;50.00;15.00;;;;;;4971200;28;20058;-89
2022/08/24 11:16:00;;;;;;;4.93;2.70;;;49.90;7.60;;;;;;4971422;28;20058;-89
2022/08/24 11:18:49;;;;;;;3.13;2.40;;;50.20;11.10;;;;;;4971395;28;20131;-89
2022/08/24 11:21:33;;;;;;;3.88;2.40;;;48.90;13.20;;;;;;4971499;28;20575;-89
2022/08/24 11:24:23;;;;;;;2.80;2.60;;;48.80;19.30;;;;;;4971237;28;20064;-89
2022/08/24 11:27:03;;;;;;;2.78;2.50;;;48.70;19.60;;;;;;5051078;28;20094;-89
2022/08/24 11:29:57;;;;;;;3.15;2.47;;;49.70;19.20;;;;;;5051986;28;20520;-89
2022/08/24 11:32:44;;;;;;;3.45;2.63;;;50.40;16.60;;;;;;5048982;28;20106;-89
2022/08/24 11:35:35;;;;;;;4.38;2.60;;;49.30;16.50;;;;;;5052065;28;20022;-89
2022/08/24 11:38:24;;;;;;;2.78;2.30;;;50.90;9.40;;;;;;5051753;28;20025;-89
2022/08/24 11:41:01;;;;;;;2.92;2.60;;;50.70;13.20;;;;;;5052026;28;20043;-89
2022/08/24 11:43:41;;;;;;;3.25;2.50;;;49.70;14.90;;;;;;5051781;28;20032;-89
2022/08/24 11:46:13;;;;;;;3.58;2.63;;;50.50;12.30;;;;;;5051889;28;20036;-90
2022/08/24 11:49:19;;;;;;;3.70;2.60;;;49.00;9.70;;;;;;5051853;28;20029;-89
2022/08/24 11:52:05;;;;;;;3.42;2.40;;;49.00;5.60;;;;;;5051404;28;20509;-89
2022/08/24 11:55:00;;;;;;;3.28;2.85;;;48.30;6.70;;;;;;5051846;28;20023;-89
2022/08/24 11:57:37;;;;;;;5.13;2.70;;;46.80;3.50;;;;;;5054608;28;20055;-89
2022/08/24 12:00:18;;;;;;;4.57;3.03;;;46.10;4.30;;;;;;5055490;28;20044;-89
2022/08/24 12:03:09;;;;;;;5.03;2.65;;;45.10;8.40;;;;;;5055343;28;20421;-90
2022/08/24 12:05:48;;;;;;;3.05;2.50;;;44.80;5.10;;;;;;5055234;28;20108;-89
2022/08/24 12:08:23;;;;;;;4.60;2.58;;;45.70;4.20;;;;;;5055271;28;20529;-88
2022/08/24 12:11:04;;;;;;;3.10;2.80;;;45.20;1.00;;;;;;5055216;28;20071;-89
2022/08/24 12:13:51;;;;;;;3.53;2.58;;;44.00;2.20;;;;;;5054909;28;20036;-89
2022/08/24 12:16:47;;;;;;;4.60;2.83;;;45.80;1.80;;;;;;5055093;28;20052;-89
2022/08/24 12:19:22;;;;;;;3.05;2.58;;;45.70;5.90;;;;;;5049322;28;20459;-89
2022/08/24 12:21:52;;;;;;;2.75;2.50;;;46.10;6.50;;;;;;5054527;28;20021;-89
2022/08/24 12:24:31;;;;;;;3.28;2.72;;;46.80;1.00;;;;;;5055017;28;20021;-89
2022/08/24 12:27:09;;;;;;;6.57;2.50;;;46.60;1.50;;;;;;5046734;28;20059;-89
2022/08/24 12:29:41;;;;;;;2.88;2.40;;;46.60;3.70;;;;;;5054791;28;20051;-89
2022/08/24 12:32:37;;;;;;;2.90;2.50;;;45.40;6.30;;;;;;5054825;28;20025;-90
2022/08/24 12:35:05;;;;;;;3.63;2.63;;;45.60;1.00;;;;;;5054498;28;20422;-89
2022/08/24 12:37:42;;;;;;;3.88;2.55;;;44.80;1.00;;;;;;5054672;28;20029;-89
2022/08/24 12:40:17;;;;;;;3.28;2.88;;;45.70;6.80;;;;;;5037370;28;20021;-89
2022/08/24 12:42:47;;;;;;;3.67;2.55;;;47.00;3.90;;;;;;5054502;28;20060;-89
2022/08/24 12:45:17;;;;;;;4.00;2.70;;;46.90;4.50;;;;;;5054620;28;20378;-89
2022/08/24 12:47:59;;;;;;;4.82;2.20;;;45.80;2.10;;;;;;5054401;28;20047;-89
2022/08/24 12:50:25;;;;;;;3.80;2.13;;;47.60;4.20;;;;;;5054150;28;20067;-89
2022/08/24 12:53:03;;;;;;;3.10;2.40;;;47.80;1.00;;;;;;5054205;28;20044;-89
2022/08/24 12:55:49;;;;;;;3.72;2.42;;;48.20;1.00;;;;;;5054408;28;20020;-89
2022/08/24 12:58:22;;;;;;;2.97;2.60;;;48.50;1.50;;;;;;5054377;28;20017;-90
2022/08/24 13:00:49;;;;;;;3.08;2.55;;;49.70;1.00;;;;;;5054313;28;20032;-89
2022/08/24 13:03:34;;;;;;;3.00;2.53;;;49.60;1.00;;;;;;5054202;28;20025;-90
2022/08/24 13:06:04;;;;;;;3.03;2.40;;;49.20;1.00;;;;;;5053883;28;20025;-89
2022/08/24 13:08:37;;;;;;;3.65;2.80;;;46.40;1.00;;;;;;5053598;28;20035;-89
2022/08/24 13:11:39;;;;;;;2.88;2.30;;;45.10;1.00;;;;;;5054062;28;20451;-89
2022/08/24 13:14:22;;;;;;;3.72;2.47;;;44.40;4.40;;;;;;5036430;28;20048;-89
2022/08/24 13:17:11;;;;;;;2.92;2.60;;;44.10;1.00;;;;;;5054091;28;20064;-90
2022/08/24 13:19:43;;;;;;;4.47;2.63;;;44.60;1.40;;;;;;5053006;28;20382;-89
2022/08/24 13:22:09;;;;;;;5.38;2.55;;;44.30;7.10;;;;;;5053780;28;20025;-89
2022/08/24 13:24:34;;;;;;;2.83;2.53;;;41.90;2.00;;;;;;5053662;28;20025;-89